Time,TemperatureF,DewpointF,PressureIn,WindDirection,WindDirectionDegrees,WindSpeedMPH,WindSpeedGustMPH,Humidity,HourlyPrecipIn,Conditions,Clouds,dailyrainin,SoftwareType,DateUTC
2013-06-07 00:10:00,71.2,70.6,29.49,NNE,22,0.0,-999.0,98,-99.99,,,0.00,Acu-Link.com,2013-06-07 04:10:00,
2013-06-07 00:25:00,70.7,70.1,29.49,North,0,0.0,-999.0,98,-99.99,,,0.00,Acu-Link.com,2013-06-07 04:25:00,
2013-06-07 00:40:00,70.7,70.1,29.49,NNW,337,0.0,-999.0,98,-99.99,,,0.00,Acu-Link.com,2013-06-07 04:40:00,
2013-06-07 00:55:00,70.7,70.1,29.49,NW,315,0.0,-999.0,98,-99.99,,,0.00,Acu-Link.com,2013-06-07 04:55:00,
2013-06-07 01:10:00,70.9,70.3,29.48,WSW,247,0.0,-999.0,98,-99.99,,,0.00,Acu-Link.com,2013-06-07 05:10:00,
2013-06-07 01:25:00,70.7,70.1,29.48,NNW,337,0.0,-999.0,98,-99.99,,,0.00,Acu-Link.com,2013-06-07 05:25:00,
2013-06-07 01:41:00,70.5,69.9,29.47,East,90,0.0,-999.0,98,-99.99,,,0.00,Acu-Link.com,2013-06-07 05:41:00,
2013-06-07 01:56:00,70.3,69.7,29.47,East,90,0.0,-999.0,98,-99.99,,,0.00,Acu-Link.com,2013-06-07 05:56:00,
2013-06-07 02:11:00,70.2,69.6,29.47,NNW,337,0.0,-999.0,98,-99.99,,,0.00,Acu-Link.com,2013-06-07 06:11:00,
2013-06-07 02:41:00,69.6,69.0,29.45,NNW,337,0.0,-999.0,98,-99.99,,,0.00,Acu-Link.com,2013-06-07 06:41:00,
2013-06-07 03:11:00,69.1,68.5,29.45,SSE,157,0.0,-999.0,98,-99.99,,,0.00,Acu-Link.com,2013-06-07 07:11:00,
2013-06-07 03:26:00,68.7,68.1,29.44,WNW,292,0.0,-999.0,98,-99.99,,,0.00,Acu-Link.com,2013-06-07 07:26:00,
2013-06-07 03:41:00,68.5,67.9,29.44,West,270,0.0,-999.0,98,-99.99,,,0.00,Acu-Link.com,2013-06-07 07:41:00,
2013-06-07 03:56:00,68.0,67.4,29.44,NW,315,0.0,-999.0,98,-99.99,,,0.00,Acu-Link.com,2013-06-07 07:56:00,
2013-06-07 04:12:00,67.8,67.2,29.44,ESE,112,0.0,-999.0,98,-99.99,,,0.00,Acu-Link.com,2013-06-07 08:12:00,
2013-06-07 04:27:00,67.5,66.9,29.43,ESE,112,0.0,-999.0,98,-99.99,,,0.00,Acu-Link.com,2013-06-07 08:27:00,
2013-06-07 04:42:00,67.8,67.2,29.43,ESE,112,0.0,-999.0,98,-99.99,,,0.00,Acu-Link.com,2013-06-07 08:42:00,
2013-06-07 04:57:00,67.3,66.7,29.44,South,180,0.0,-999.0,98,-99.99,,,0.00,Acu-Link.com,2013-06-07 08:57:00,
2013-06-07 05:12:00,67.1,66.5,29.44,South,180,0.0,-999.0,98,-99.99,,,0.00,Acu-Link.com,2013-06-07 09:12:00,
2013-06-07 05:27:00,67.5,66.9,29.44,SSW,202,0.0,-999.0,98,-99.99,,,0.00,Acu-Link.com,2013-06-07 09:27:00,
2013-06-07 05:42:00,67.5,66.9,29.44,SSW,202,0.0,-999.0,98,-99.99,,,0.00,Acu-Link.com,2013-06-07 09:42:00,
2013-06-07 05:57:00,67.1,66.5,29.44,NNW,337,0.0,-999.0,98,-99.99,,,0.00,Acu-Link.com,2013-06-07 09:57:00,
2013-06-07 06:12:00,66.6,66.0,29.45,SSE,157,0.0,-999.0,98,-99.99,,,0.00,Acu-Link.com,2013-06-07 10:12:00,
2013-06-07 06:28:00,66.6,66.0,29.45,East,90,0.0,-999.0,98,-99.99,,,0.00,Acu-Link.com,2013-06-07 10:28:00,
2013-06-07 06:43:00,66.4,65.8,29.46,ENE,67,0.0,-999.0,98,-99.99,,,0.00,Acu-Link.com,2013-06-07 10:43:00,
2013-06-07 06:58:00,66.2,65.6,29.45,NW,315,0.0,-999.0,98,-99.99,,,0.00,Acu-Link.com,2013-06-07 10:58:00,
2013-06-07 07:13:00,66.7,66.1,29.46,NE,45,0.0,-999.0,98,-99.99,,,0.00,Acu-Link.com,2013-06-07 11:13:00,
2013-06-07 07:28:00,67.8,67.2,29.46,East,90,0.0,-999.0,98,-99.99,,,0.00,Acu-Link.com,2013-06-07 11:28:00,
2013-06-07 07:43:00,69.1,68.5,29.46,ENE,67,0.0,-999.0,98,-99.99,,,0.00,Acu-Link.com,2013-06-07 11:43:00,
2013-06-07 07:58:00,71.6,71.0,29.46,ENE,67,0.0,-999.0,98,-99.99,,,0.00,Acu-Link.com,2013-06-07 11:58:00,
2013-06-07 08:13:00,73.4,72.8,29.45,NE,45,0.0,-999.0,98,-99.99,,,0.00,Acu-Link.com,2013-06-07 12:13:00,
2013-06-07 08:28:00,75.4,73.5,29.47,NNE,22,1.1,-999.0,94,-99.99,,,0.00,Acu-Link.com,2013-06-07 12:28:00,
2013-06-07 08:44:00,73.8,73.2,29.48,NNE,22,0.0,-999.0,98,-99.99,,,0.00,Acu-Link.com,2013-06-07 12:44:00,
2013-06-07 08:59:00,73.8,73.2,29.48,ESE,112,0.0,-999.0,98,-99.99,,,0.00,Acu-Link.com,2013-06-07 12:59:00,
2013-06-07 09:14:00,75.6,73.4,29.48,East,90,1.7,-999.0,93,-99.99,,,0.00,Acu-Link.com,2013-06-07 13:14:00,
2013-06-07 09:29:00,74.8,73.0,29.49,West,270,0.0,-999.0,94,-99.99,,,0.00,Acu-Link.com,2013-06-07 13:29:00,
2013-06-07 09:44:00,75.6,73.4,29.49,ESE,112,1.1,-999.0,93,-99.99,,,0.00,Acu-Link.com,2013-06-07 13:44:00,
2013-06-07 09:59:00,76.1,73.6,29.49,NNE,22,1.7,-999.0,92,-99.99,,,0.00,Acu-Link.com,2013-06-07 13:59:00,
2013-06-07 10:14:00,77.2,74.0,29.49,NNE,22,2.7,-999.0,90,-99.99,,,0.00,Acu-Link.com,2013-06-07 14:14:00,
2013-06-07 10:29:00,76.3,73.1,29.50,NNE,22,1.1,-999.0,90,-99.99,,,0.00,Acu-Link.com,2013-06-07 14:29:00,
2013-06-07 10:44:00,77.5,73.7,29.49,NE,45,1.1,-999.0,88,-99.99,,,0.00,Acu-Link.com,2013-06-07 14:44:00,
2013-06-07 11:00:00,79.0,73.7,29.49,SE,135,2.2,-999.0,84,-99.99,,,0.00,Acu-Link.com,2013-06-07 15:00:00,
2013-06-07 11:15:00,79.3,74.0,29.49,WNW,292,0.0,-999.0,84,-99.99,,,0.00,Acu-Link.com,2013-06-07 15:15:00,
2013-06-07 11:30:00,81.5,74.7,29.50,NNE,22,2.7,-999.0,80,-99.99,,,0.00,Acu-Link.com,2013-06-07 15:30:00,
2013-06-07 11:45:00,78.6,73.7,29.49,NE,45,1.7,-999.0,85,-99.99,,,0.00,Acu-Link.com,2013-06-07 15:45:00,
2013-06-07 12:00:00,81.7,73.8,29.48,NE,45,2.2,-999.0,77,-99.99,,,0.00,Acu-Link.com,2013-06-07 16:00:00,
2013-06-07 12:15:00,81.9,75.1,29.49,NNW,337,2.2,-999.0,80,-99.99,,,0.00,Acu-Link.com,2013-06-07 16:15:00,
2013-06-07 12:30:00,83.1,74.3,29.48,SSE,157,4.2,-999.0,75,-99.99,,,0.00,Acu-Link.com,2013-06-07 16:30:00,
2013-06-07 12:45:00,84.2,74.2,29.48,WSW,247,2.7,-999.0,72,-99.99,,,0.00,Acu-Link.com,2013-06-07 16:45:00,
2013-06-07 13:00:00,82.8,74.0,29.48,SSE,157,2.2,-999.0,75,-99.99,,,0.00,Acu-Link.com,2013-06-07 17:00:00,
2013-06-07 13:16:00,84.6,75.0,29.47,West,270,0.0,-999.0,73,-99.99,,,0.00,Acu-Link.com,2013-06-07 17:16:00,
2013-06-07 13:31:00,84.0,75.2,29.46,West,270,3.2,-999.0,75,-99.99,,,0.00,Acu-Link.com,2013-06-07 17:31:00,
2013-06-07 13:46:00,84.6,74.6,29.46,South,180,2.2,-999.0,72,-99.99,,,0.00,Acu-Link.com,2013-06-07 17:46:00,
2013-06-07 14:16:00,86.5,73.8,29.45,East,90,4.7,-999.0,66,-99.99,,,0.00,Acu-Link.com,2013-06-07 18:16:00,
2013-06-07 14:46:00,83.3,74.1,29.45,SW,225,2.2,-999.0,74,-99.99,,,0.00,Acu-Link.com,2013-06-07 18:46:00,
2013-06-07 15:01:00,85.1,74.2,29.45,NE,45,0.0,-999.0,70,-99.99,,,0.00,Acu-Link.com,2013-06-07 19:01:00,
2013-06-07 15:32:00,83.3,74.5,29.45,North,0,2.7,-999.0,75,-99.99,,,0.00,Acu-Link.com,2013-06-07 19:32:00,
2013-06-07 15:47:00,79.5,73.5,29.45,NE,45,5.8,-999.0,82,-99.99,,,0.00,Acu-Link.com,2013-06-07 19:47:00,
2013-06-07 16:17:00,72.1,70.0,29.48,West,270,1.1,-999.0,93,-99.99,,,0.00,Acu-Link.com,2013-06-07 20:17:00,
2013-06-07 16:47:00,70.7,70.1,29.49,WNW,292,0.0,-999.0,98,-99.99,,,0.03,Acu-Link.com,2013-06-07 20:47:00,
2013-06-07 17:02:00,70.5,69.9,29.49,ESE,112,0.0,-999.0,98,-99.99,,,0.04,Acu-Link.com,2013-06-07 21:02:00,
2013-06-07 17:17:00,70.3,69.7,29.49,SSW,202,2.7,-999.0,98,-99.99,,,0.06,Acu-Link.com,2013-06-07 21:17:00,
2013-06-07 17:32:00,70.7,70.1,29.50,SSW,202,3.2,-999.0,98,-99.99,,,0.09,Acu-Link.com,2013-06-07 21:32:00,
2013-06-07 17:47:00,70.7,70.1,29.50,SSW,202,2.2,-999.0,98,-99.99,,,0.11,Acu-Link.com,2013-06-07 21:47:00,
2013-06-07 18:03:00,70.7,70.1,29.51,WSW,247,1.7,-999.0,98,-99.99,,,0.12,Acu-Link.com,2013-06-07 22:03:00,
2013-06-07 18:18:00,71.1,70.5,29.52,NW,315,0.0,-999.0,98,-99.99,,,0.13,Acu-Link.com,2013-06-07 22:18:00,
2013-06-07 18:33:00,71.2,70.6,29.52,East,90,0.0,-999.0,98,-99.99,,,0.14,Acu-Link.com,2013-06-07 22:33:00,
2013-06-07 18:48:00,70.9,70.3,29.52,NW,315,0.0,-999.0,98,-99.99,,,0.16,Acu-Link.com,2013-06-07 22:48:00,
2013-06-07 19:03:00,71.2,70.6,29.51,North,0,0.0,-999.0,98,-99.99,,,0.18,Acu-Link.com,2013-06-07 23:03:00,
2013-06-07 19:18:00,71.2,70.6,29.52,ESE,112,0.0,-999.0,98,-99.99,,,0.18,Acu-Link.com,2013-06-07 23:18:00,
2013-06-07 19:33:00,71.2,70.6,29.52,NE,45,1.7,-999.0,98,-99.99,,,0.18,Acu-Link.com,2013-06-07 23:33:00,
2013-06-07 20:19:00,70.3,69.7,29.52,East,90,0.0,-999.0,98,-99.99,,,0.18,Acu-Link.com,2013-06-08 00:19:00,
2013-06-07 20:34:00,70.0,69.4,29.54,NNW,337,0.0,-999.0,98,-99.99,,,0.18,Acu-Link.com,2013-06-08 00:34:00,
2013-06-07 20:49:00,69.8,69.2,29.53,East,90,0.0,-999.0,98,-99.99,,,0.18,Acu-Link.com,2013-06-08 00:49:00,
2013-06-07 21:19:00,69.8,69.2,29.54,ESE,112,0.0,-999.0,98,-99.99,,,0.18,Acu-Link.com,2013-06-08 01:19:00,
2013-06-07 22:04:00,68.4,67.8,29.56,West,270,0.0,-999.0,98,-99.99,,,0.18,Acu-Link.com,2013-06-08 02:04:00,
2013-06-07 22:19:00,68.4,67.8,29.57,SSW,202,1.1,-999.0,98,-99.99,,,0.18,Acu-Link.com,2013-06-08 02:19:00,
2013-06-07 22:35:00,67.8,67.2,29.57,SW,225,0.0,-999.0,98,-99.99,,,0.19,Acu-Link.com,2013-06-08 02:35:00,
2013-06-07 22:50:00,67.3,66.7,29.58,WNW,292,0.0,-999.0,98,-99.99,,,0.19,Acu-Link.com,2013-06-08 02:50:00,
2013-06-07 23:05:00,66.7,66.1,29.59,WNW,292,0.0,-999.0,98,-99.99,,,0.19,Acu-Link.com,2013-06-08 03:05:00,
2013-06-07 23:20:00,66.4,65.8,29.59,SSE,157,0.0,-999.0,98,-99.99,,,0.19,Acu-Link.com,2013-06-08 03:20:00,
2013-06-07 23:35:00,66.2,65.6,29.59,West,270,0.0,-999.0,98,-99.99,,,0.19,Acu-Link.com,2013-06-08 03:35:00,
2013-06-07 23:50:00,66.2,65.6,29.59,SW,225,0.0,-999.0,98,-99.99,,,0.19,Acu-Link.com,2013-06-08 03:50:00,